createdAt,value
2019-05-05T00:00:24.665Z,38.70
2019-05-05T00:01:25.069Z,38.00
2019-05-05T00:02:24.859Z,35.09
2019-05-05T00:03:24.965Z,32.20
2019-05-05T00:04:24.373Z,29.20
2019-05-05T00:05:24.704Z,37.90
2019-05-05T00:06:25.002Z,24.79
2019-05-05T00:07:25.402Z,23.60
2019-05-05T00:08:24.595Z,18.00
2019-05-05T00:09:25.231Z,25.00
2019-05-05T00:10:25.278Z,23.79
2019-05-05T00:11:24.535Z,41.09
2019-05-05T00:12:25.150Z,34.09
2019-05-05T00:13:25.198Z,46.40
2019-05-05T00:14:24.675Z,34.09
2019-05-05T00:15:25.074Z,44.79
2019-05-05T00:16:24.586Z,41.09
2019-05-05T00:17:24.917Z,48.59
2019-05-05T00:19:32.509Z,41.29
2019-05-05T00:20:48.903Z,30.70
2019-05-05T00:21:48.896Z,36.40
2019-05-05T00:22:48.885Z,43.00
2019-05-05T00:23:48.872Z,32.09
2019-05-05T00:24:49.021Z,29.50
2019-05-05T00:25:48.858Z,38.09
2019-05-05T00:26:48.847Z,36.50
2019-05-05T00:27:48.830Z,36.90
2019-05-05T00:28:48.818Z,42.70
2019-05-05T00:29:48.809Z,44.29
2019-05-05T00:30:48.894Z,50.40
2019-05-05T00:31:48.785Z,49.70
2019-05-05T00:32:48.782Z,47.29
2019-05-05T00:33:48.772Z,36.40
2019-05-05T00:34:48.762Z,36.50
2019-05-05T00:35:48.749Z,41.79
2019-05-05T00:36:48.783Z,40.50
2019-05-05T00:37:48.733Z,40.09
2019-05-05T00:38:48.714Z,43.20
2019-05-05T00:39:48.706Z,41.29
2019-05-05T00:40:48.692Z,47.00
2019-05-05T00:41:48.686Z,48.29
2019-05-05T00:42:48.824Z,46.79
2019-05-05T00:43:48.661Z,49.90
2019-05-05T00:44:48.653Z,37.70
2019-05-05T00:45:48.644Z,41.90
2019-05-05T00:46:48.631Z,50.09
2019-05-05T00:47:48.621Z,38.29
2019-05-05T00:48:48.710Z,52.00
2019-05-05T00:49:49.385Z,49.50
2019-05-05T00:50:51.694Z,43.29
2019-05-05T00:51:48.580Z,50.79
2019-05-05T00:52:48.568Z,38.79
2019-05-05T00:53:48.560Z,51.70
2019-05-05T00:54:48.648Z,48.29
2019-05-05T00:55:48.537Z,51.50
2019-05-05T00:56:48.527Z,47.90
2019-05-05T00:57:48.516Z,50.50
2019-05-05T00:58:48.509Z,50.09
2019-05-05T00:59:48.493Z,35.90
2019-05-05T01:00:48.636Z,49.40
2019-05-05T01:01:48.470Z,38.00
2019-05-05T01:02:48.461Z,47.59
2019-05-05T01:03:48.450Z,39.00
2019-05-05T01:04:48.437Z,45.29
2019-05-05T01:05:48.429Z,48.20
2019-05-05T01:06:48.516Z,53.70
2019-05-05T01:07:48.409Z,48.40
2019-05-05T01:08:48.394Z,48.29
2019-05-05T01:09:48.389Z,52.59
2019-05-05T01:10:48.374Z,39.29
2019-05-05T01:11:48.365Z,34.29
2019-05-05T01:12:48.403Z,52.09
2019-05-05T01:13:48.342Z,52.50
2019-05-05T01:14:48.336Z,55.70
2019-05-05T01:15:48.326Z,46.79
2019-05-05T01:16:48.313Z,46.70
2019-05-05T01:17:48.301Z,62.40
2019-05-05T01:18:48.441Z,54.00
2019-05-05T01:20:00.367Z,41.00
2019-05-05T01:21:14.958Z,47.20
2019-05-05T01:22:14.365Z,47.79
2019-05-05T01:23:15.050Z,37.59
2019-05-05T01:24:14.385Z,43.29
2019-05-05T01:25:14.829Z,37.70
2019-05-05T01:26:14.357Z,33.79
2019-05-05T01:27:14.757Z,37.50
2019-05-05T01:28:14.316Z,44.59
2019-05-05T01:29:14.668Z,40.40
2019-05-05T01:30:15.107Z,47.20
2019-05-05T01:31:14.640Z,50.29
2019-05-05T01:32:15.099Z,42.09
2019-05-05T01:33:14.536Z,40.70
2019-05-05T01:34:14.955Z,37.40
2019-05-05T01:35:14.419Z,45.50
2019-05-05T01:36:14.891Z,43.59
2019-05-05T01:37:15.057Z,49.90
2019-05-05T01:38:14.207Z,54.50
2019-05-05T01:39:14.665Z,46.09
2019-05-05T01:40:14.188Z,59.90
2019-05-05T01:41:14.728Z,57.79
2019-05-05T01:42:14.296Z,53.29
2019-05-05T01:43:14.632Z,45.79
2019-05-05T01:44:12.846Z,51.70
2019-05-05T01:45:14.828Z,50.50
2019-05-05T01:46:14.292Z,59.20
2019-05-05T01:47:14.619Z,56.79
2019-05-05T01:48:14.248Z,62.20
2019-05-05T01:49:14.632Z,73.19
2019-05-05T01:50:18.224Z,57.20
2019-05-05T01:51:37.580Z,52.20
2019-05-05T01:52:37.571Z,49.59
2019-05-05T01:53:37.963Z,60.29
2019-05-05T01:54:37.547Z,60.59
2019-05-05T01:55:37.539Z,49.29
2019-05-05T01:56:37.532Z,52.09
2019-05-05T01:57:37.519Z,63.09
2019-05-05T01:58:37.511Z,42.40
2019-05-05T01:59:37.549Z,59.20
2019-05-05T02:00:37.495Z,55.00
2019-05-05T02:01:37.479Z,68.00
2019-05-05T02:02:37.478Z,69.19
2019-05-05T02:03:37.462Z,49.90
2019-05-05T02:04:37.450Z,62.70
2019-05-05T02:05:37.492Z,66.30
2019-05-05T02:06:37.427Z,63.40
2019-05-05T02:07:37.426Z,55.70
2019-05-05T02:08:37.415Z,56.90
2019-05-05T02:09:37.402Z,52.29
2019-05-05T02:10:37.390Z,43.59
2019-05-05T02:11:37.532Z,52.09
2019-05-05T02:12:37.371Z,45.90
2019-05-05T02:13:37.359Z,50.00
2019-05-05T02:14:37.356Z,49.79
2019-05-05T02:15:37.345Z,40.40
2019-05-05T02:16:37.331Z,44.79
2019-05-05T02:17:37.371Z,35.50
2019-05-05T02:18:37.319Z,37.90
2019-05-05T02:19:37.299Z,37.40
2019-05-05T02:20:37.292Z,42.79
2019-05-05T02:21:37.281Z,37.00
2019-05-05T02:22:37.271Z,38.29
2019-05-05T02:23:37.312Z,31.29
2019-05-05T02:24:37.254Z,36.90
2019-05-05T02:25:37.243Z,34.00
2019-05-05T02:26:37.226Z,33.00
2019-05-05T02:27:37.222Z,24.60
2019-05-05T02:28:37.208Z,29.89
2019-05-05T02:29:37.349Z,37.90
2019-05-05T02:30:37.192Z,35.09
2019-05-05T02:31:37.183Z,33.90
2019-05-05T02:32:37.168Z,33.20
2019-05-05T02:33:37.158Z,36.50
2019-05-05T02:34:37.154Z,31.89
2019-05-05T02:35:37.190Z,38.90
2019-05-05T02:36:37.132Z,30.60
2019-05-05T02:37:37.126Z,31.89
2019-05-05T02:38:37.113Z,31.20
2019-05-05T02:39:39.328Z,32.59
2019-05-05T02:41:04.780Z,28.50
2019-05-05T02:42:01.938Z,34.40
2019-05-05T02:43:01.929Z,34.20
2019-05-05T02:44:04.872Z,36.90
2019-05-05T02:45:05.021Z,43.70
2019-05-05T02:46:02.059Z,26.60
2019-05-05T02:47:04.588Z,39.20
2019-05-05T02:48:05.117Z,36.09
2019-05-05T02:49:05.014Z,32.59
2019-05-05T02:50:04.985Z,34.90
2019-05-05T02:51:02.999Z,39.79
2019-05-05T02:52:04.707Z,38.09
2019-05-05T02:53:03.916Z,44.70
2019-05-05T02:54:01.828Z,47.90
2019-05-05T02:55:03.966Z,50.00
2019-05-05T02:56:04.019Z,46.50
2019-05-05T02:57:01.797Z,47.70
2019-05-05T02:58:03.739Z,47.90
2019-05-05T02:59:01.787Z,45.20
2019-05-05T03:00:01.769Z,37.09
2019-05-05T03:01:01.755Z,40.70
2019-05-05T03:02:01.751Z,43.79
2019-05-05T03:03:01.742Z,42.50
2019-05-05T03:04:03.785Z,43.70
2019-05-05T03:05:01.719Z,41.70
2019-05-05T03:06:01.714Z,36.50
2019-05-05T03:07:01.705Z,50.20
2019-05-05T03:08:01.698Z,37.09
2019-05-05T03:09:01.681Z,44.40
2019-05-05T03:10:03.601Z,44.00
2019-05-05T03:11:03.794Z,44.90
2019-05-05T03:12:01.651Z,40.59
2019-05-05T03:13:01.648Z,42.20
2019-05-05T03:14:01.633Z,44.79
2019-05-05T03:15:04.002Z,50.90
2019-05-05T03:16:03.644Z,45.40
2019-05-05T03:17:01.604Z,39.40
2019-05-05T03:18:01.598Z,48.90
2019-05-05T03:19:03.453Z,51.70
2019-05-05T03:20:01.580Z,41.20
2019-05-05T03:21:06.715Z,40.40
2019-05-05T03:22:03.590Z,45.20
2019-05-05T03:23:01.549Z,41.50
2019-05-05T03:24:03.598Z,41.90
2019-05-05T03:25:01.528Z,39.59
2019-05-05T03:26:01.517Z,46.00
2019-05-05T03:27:03.686Z,45.29
2019-05-05T03:28:01.604Z,38.59
2019-05-05T03:29:01.490Z,50.40
2019-05-05T03:30:04.710Z,37.79
2019-05-05T03:31:04.774Z,44.79
2019-05-05T03:32:01.465Z,46.50
2019-05-05T03:33:05.098Z,41.20
2019-05-05T03:34:01.507Z,46.90
2019-05-05T03:35:01.449Z,47.50
2019-05-05T03:36:03.431Z,42.00
2019-05-05T03:37:01.419Z,51.50
2019-05-05T03:38:01.403Z,50.40
2019-05-05T03:39:01.402Z,44.40
2019-05-05T03:40:01.595Z,47.40
2019-05-05T03:41:03.506Z,46.09
2019-05-05T03:42:03.526Z,48.20
2019-05-05T03:43:01.360Z,49.00
2019-05-05T03:44:01.350Z,50.79
2019-05-05T03:45:01.339Z,53.50
2019-05-05T03:46:01.379Z,43.40
2019-05-05T03:47:03.458Z,47.20
2019-05-05T03:48:01.312Z,53.70
2019-05-05T03:49:01.301Z,45.90
2019-05-05T03:50:01.293Z,44.40
2019-05-05T03:51:01.289Z,46.09
2019-05-05T03:52:01.379Z,52.90
2019-05-05T03:53:01.270Z,43.20
2019-05-05T03:54:01.259Z,40.29
2019-05-05T03:55:03.635Z,39.79
2019-05-05T03:56:01.240Z,47.20
2019-05-05T03:57:01.229Z,51.90
2019-05-05T03:58:01.369Z,43.40
2019-05-05T03:59:01.208Z,40.79
2019-05-05T04:00:01.195Z,44.50
2019-05-05T04:01:01.195Z,45.79
2019-05-05T04:02:01.180Z,46.00
2019-05-05T04:03:01.172Z,48.70
2019-05-05T04:04:03.351Z,41.40
2019-05-05T04:05:01.148Z,46.20
2019-05-05T04:06:01.143Z,42.50
2019-05-05T04:07:01.133Z,54.00
2019-05-05T04:08:01.123Z,51.59
2019-05-05T04:09:01.113Z,44.70
2019-05-05T04:10:03.585Z,45.29
2019-05-05T04:11:01.097Z,43.40
2019-05-05T04:12:01.084Z,43.90
2019-05-05T04:13:01.077Z,42.70
2019-05-05T04:14:01.067Z,40.40
2019-05-05T04:15:01.060Z,38.79
2019-05-05T04:16:01.296Z,39.90
2019-05-05T04:17:01.039Z,37.00
2019-05-05T04:18:01.026Z,39.09
2019-05-05T04:19:01.016Z,41.40
2019-05-05T04:20:01.006Z,39.90
2019-05-05T04:21:00.997Z,38.79
2019-05-05T04:22:01.039Z,40.20
2019-05-05T04:23:00.980Z,40.70
2019-05-05T04:24:00.971Z,35.59
2019-05-05T04:25:00.959Z,40.40
2019-05-05T04:26:00.952Z,34.79
2019-05-05T04:27:00.940Z,31.39
2019-05-05T04:28:01.031Z,31.39
2019-05-05T04:29:03.254Z,37.00
2019-05-05T04:30:00.918Z,28.00
2019-05-05T04:31:00.899Z,30.50
2019-05-05T04:32:00.889Z,26.50
2019-05-05T04:33:00.886Z,35.50
2019-05-05T04:34:01.020Z,36.09
2019-05-05T04:35:00.861Z,33.09
2019-05-05T04:36:00.848Z,33.70
2019-05-05T04:37:00.840Z,33.29
2019-05-05T04:38:00.831Z,39.90
2019-05-05T04:39:00.817Z,37.00
2019-05-05T04:40:00.910Z,36.70
2019-05-05T04:41:00.798Z,36.20
2019-05-05T04:42:00.788Z,31.50
2019-05-05T04:43:00.777Z,38.79
2019-05-05T04:44:00.768Z,41.09
2019-05-05T04:45:00.762Z,31.10
2019-05-05T04:46:00.801Z,36.00
2019-05-05T04:47:00.740Z,33.50
2019-05-05T04:48:00.729Z,37.20
2019-05-05T04:49:00.720Z,32.29
2019-05-05T04:50:00.706Z,38.50
2019-05-05T04:51:00.698Z,41.40
2019-05-05T04:52:00.937Z,39.40
2019-05-05T04:53:00.681Z,36.00
2019-05-05T04:54:00.669Z,29.29
2019-05-05T04:55:00.663Z,31.00
2019-05-05T04:56:00.646Z,28.20
2019-05-05T04:57:00.636Z,43.20
2019-05-05T04:58:00.680Z,38.00
2019-05-05T04:59:00.618Z,35.79
2019-05-05T05:00:00.612Z,38.50
2019-05-05T05:01:00.597Z,31.20
2019-05-05T05:02:00.590Z,33.40
2019-05-05T05:03:00.577Z,36.90
2019-05-05T05:04:00.672Z,36.50
2019-05-05T05:05:00.562Z,39.90
2019-05-05T05:06:00.547Z,35.29
2019-05-05T05:07:00.552Z,40.50
2019-05-05T05:08:00.530Z,32.09
2019-05-05T05:09:00.526Z,30.89
2019-05-05T05:10:00.664Z,31.60
2019-05-05T05:11:00.502Z,35.40
2019-05-05T05:12:00.487Z,33.29
2019-05-05T05:13:00.478Z,33.59
2019-05-05T05:14:00.471Z,29.79
2019-05-05T05:15:00.463Z,35.29
2019-05-05T05:16:00.507Z,26.39
2019-05-05T05:17:00.443Z,31.70
2019-05-05T05:18:00.433Z,26.79
2019-05-05T05:19:00.428Z,27.79
2019-05-05T05:20:00.412Z,33.70
2019-05-05T05:21:00.408Z,38.29
2019-05-05T05:22:02.128Z,27.70
2019-05-05T05:23:00.387Z,30.20
2019-05-05T05:24:00.377Z,26.10
2019-05-05T05:25:00.362Z,26.39
2019-05-05T05:26:00.355Z,24.79
2019-05-05T05:27:00.344Z,24.50
2019-05-05T05:28:00.482Z,26.50
2019-05-05T05:29:00.327Z,29.70
2019-05-05T05:30:00.312Z,24.39
2019-05-05T05:31:00.302Z,24.50
2019-05-05T05:32:00.293Z,25.29
2019-05-05T05:33:00.283Z,21.79
2019-05-05T05:34:00.325Z,13.89
2019-05-05T05:35:00.263Z,13.19
2019-05-05T05:36:00.249Z,11.89
2019-05-05T05:37:00.247Z,11.39
2019-05-05T05:38:00.235Z,16.39
2019-05-05T05:39:00.221Z,14.89
2019-05-05T05:40:00.261Z,13.50
2019-05-05T05:41:00.200Z,8.10
2019-05-05T05:42:00.194Z,7.40
2019-05-05T05:43:00.181Z,9.19
2019-05-05T05:44:00.168Z,7.50
2019-05-05T05:45:00.162Z,8.00
2019-05-05T05:46:00.301Z,9.50
2019-05-05T05:47:00.140Z,7.40
2019-05-05T05:48:00.128Z,7.00
2019-05-05T05:49:00.119Z,10.10
2019-05-05T05:50:00.111Z,8.39
2019-05-05T05:51:00.104Z,10.19
2019-05-05T05:53:00.128Z,15.00
2019-05-05T05:54:00.070Z,5.30
2019-05-05T05:55:00.065Z,11.50
2019-05-05T05:56:00.052Z,8.19
2019-05-05T05:57:00.039Z,5.59
2019-05-05T05:58:00.030Z,8.30
2019-05-05T05:59:00.067Z,6.50
2019-05-05T06:00:00.013Z,6.69
2019-05-05T06:01:00.000Z,7.00
2019-05-05T06:02:09.897Z,8.69
2019-05-05T06:03:24.802Z,7.09
2019-05-05T06:04:24.938Z,6.19
2019-05-05T06:05:24.772Z,7.69
2019-05-05T06:06:24.775Z,7.30
2019-05-05T06:07:24.761Z,11.19
2019-05-05T06:08:24.742Z,5.19
2019-05-05T06:09:24.730Z,6.69
2019-05-05T06:10:27.305Z,6.30
2019-05-05T06:11:24.709Z,9.00
2019-05-05T06:12:24.713Z,7.59
2019-05-05T06:13:24.694Z,8.00
2019-05-05T06:14:24.775Z,7.19
2019-05-05T06:15:24.674Z,4.90
2019-05-05T06:16:24.758Z,7.59
2019-05-05T06:17:24.650Z,5.00
2019-05-05T06:18:24.636Z,5.90
2019-05-05T06:19:24.733Z,6.30
2019-05-05T06:20:24.622Z,6.40
2019-05-05T06:21:24.607Z,4.69
2019-05-05T06:22:29.221Z,11.50
2019-05-05T06:23:49.399Z,9.10
2019-05-05T06:24:49.389Z,10.00
2019-05-05T06:25:49.378Z,6.80
2019-05-05T06:26:49.367Z,9.80
2019-05-05T06:27:49.409Z,8.89
2019-05-05T06:28:49.348Z,7.00
2019-05-05T06:29:49.343Z,5.80
2019-05-05T06:30:49.325Z,9.80
2019-05-05T06:31:49.321Z,6.19
2019-05-05T06:32:49.306Z,8.19
2019-05-05T06:33:49.347Z,9.00
2019-05-05T06:34:49.291Z,4.80
2019-05-05T06:35:49.281Z,11.00
2019-05-05T06:36:49.276Z,5.40
2019-05-05T06:37:49.255Z,6.09
2019-05-05T06:38:49.246Z,5.50
2019-05-05T06:39:49.385Z,7.30
2019-05-05T06:40:49.226Z,7.90
2019-05-05T06:41:49.220Z,8.80
2019-05-05T06:42:49.206Z,7.80
2019-05-05T06:43:49.199Z,9.89
2019-05-05T06:44:49.184Z,9.39
2019-05-05T06:45:49.232Z,7.59
2019-05-05T06:46:49.172Z,7.19
2019-05-05T06:47:49.162Z,6.19
2019-05-05T06:48:49.145Z,6.69
2019-05-05T06:49:49.140Z,5.69
2019-05-05T06:50:49.125Z,6.40
2019-05-05T06:51:49.166Z,7.19
2019-05-05T06:52:49.102Z,4.30
2019-05-05T06:53:49.094Z,7.00
2019-05-05T06:54:49.081Z,2.50
2019-05-05T06:55:51.768Z,4.69
2019-05-05T06:56:49.061Z,6.09
2019-05-05T06:57:49.205Z,3.29
2019-05-05T06:58:49.043Z,3.20
2019-05-05T06:59:49.030Z,5.19
2019-05-05T07:00:49.023Z,5.00
2019-05-05T07:01:49.013Z,7.59
2019-05-05T07:02:49.002Z,4.30
2019-05-05T07:03:49.039Z,3.59
2019-05-05T07:04:48.984Z,5.40
2019-05-05T07:05:48.971Z,3.50
2019-05-05T07:06:54.204Z,4.30
2019-05-05T07:08:13.973Z,4.59
2019-05-05T07:09:14.001Z,7.00
2019-05-05T07:10:14.131Z,7.50
2019-05-05T07:11:14.538Z,4.90
2019-05-05T07:12:13.982Z,3.00
2019-05-05T07:13:14.088Z,4.19
2019-05-05T07:14:14.259Z,5.00
2019-05-05T07:16:15.026Z,8.10
2019-05-05T07:17:14.138Z,6.30
2019-05-05T07:18:14.202Z,5.69
2019-05-05T07:19:14.718Z,5.00
2019-05-05T07:20:13.750Z,5.30
2019-05-05T07:21:14.276Z,10.39
2019-05-05T07:22:14.425Z,8.19
2019-05-05T07:23:14.548Z,12.19
2019-05-05T07:24:14.523Z,6.50
2019-05-05T07:25:13.789Z,6.59
2019-05-05T07:26:14.390Z,6.90
2019-05-05T07:27:13.950Z,8.69
2019-05-05T07:28:14.696Z,5.50
2019-05-05T07:29:16.318Z,5.00
2019-05-05T07:30:13.764Z,6.09
2019-05-05T07:31:14.382Z,5.59
2019-05-05T07:32:14.168Z,8.39
2019-05-05T07:33:14.856Z,5.80
2019-05-05T07:34:13.782Z,5.59
2019-05-05T07:35:14.565Z,5.50
2019-05-05T07:36:14.617Z,10.10
2019-05-05T07:37:14.349Z,7.80
2019-05-05T07:38:13.944Z,8.60
2019-05-05T07:39:14.371Z,8.30
2019-05-05T07:40:13.637Z,8.10
2019-05-05T07:41:14.126Z,6.30
2019-05-05T07:42:13.778Z,13.19
2019-05-05T07:43:14.650Z,9.10
2019-05-05T07:44:25.771Z,5.59
2019-05-05T07:45:38.275Z,12.39
2019-05-05T07:46:38.266Z,15.60
2019-05-05T07:47:38.253Z,9.30
2019-05-05T07:48:38.245Z,7.09
2019-05-05T07:49:38.238Z,6.09
2019-05-05T07:50:38.477Z,6.09
2019-05-05T07:51:38.207Z,6.90
2019-05-05T07:52:38.198Z,8.80
2019-05-05T07:53:38.191Z,7.69
2019-05-05T07:54:38.178Z,7.09
2019-05-05T07:55:38.169Z,7.30
2019-05-05T07:56:38.209Z,10.60
2019-05-05T07:57:38.438Z,8.19
2019-05-05T07:58:38.135Z,7.50
2019-05-05T07:59:38.121Z,7.90
2019-05-05T08:00:38.114Z,9.00
2019-05-05T08:01:38.107Z,13.00
2019-05-05T08:02:38.150Z,6.69
2019-05-05T08:03:38.079Z,11.19
2019-05-05T08:04:38.067Z,8.19
2019-05-05T08:05:38.056Z,7.19
2019-05-05T08:06:38.049Z,8.60
2019-05-05T08:07:38.037Z,11.80
2019-05-05T08:08:38.179Z,12.89
2019-05-05T08:09:38.016Z,10.00
2019-05-05T08:10:38.000Z,10.30
2019-05-05T08:11:37.994Z,7.30
2019-05-05T08:12:37.981Z,9.69
2019-05-05T08:13:37.968Z,10.10
2019-05-05T08:14:38.011Z,12.89
2019-05-05T08:15:37.947Z,10.10
2019-05-05T08:16:37.936Z,9.10
2019-05-05T08:17:39.072Z,11.69
2019-05-05T08:18:37.918Z,11.69
2019-05-05T08:19:37.906Z,9.60
2019-05-05T08:20:37.997Z,10.50
2019-05-05T08:21:37.886Z,9.89
2019-05-05T08:22:37.876Z,9.50
2019-05-05T08:23:37.859Z,8.50
2019-05-05T08:24:37.859Z,8.10
2019-05-05T08:25:40.326Z,11.80
2019-05-05T08:26:38.020Z,10.89
2019-05-05T08:27:37.818Z,11.00
2019-05-05T08:28:37.809Z,12.80
2019-05-05T08:29:37.796Z,11.89
2019-05-05T08:30:37.784Z,10.19
2019-05-05T08:31:37.771Z,8.89
2019-05-05T08:32:37.813Z,8.39
2019-05-05T08:33:37.755Z,16.60
2019-05-05T08:34:37.738Z,36.00
2019-05-05T08:35:37.730Z,17.00
2019-05-05T08:36:39.393Z,14.89
2019-05-05T08:37:37.707Z,13.89
2019-05-05T08:38:37.752Z,16.20
2019-05-05T08:39:37.694Z,9.60
2019-05-05T08:40:37.677Z,11.00
2019-05-05T08:41:37.666Z,13.60
2019-05-05T08:42:37.652Z,15.30
2019-05-05T08:43:37.646Z,10.69
2019-05-05T08:44:37.781Z,9.50
2019-05-05T08:45:37.624Z,11.39
2019-05-05T08:46:37.611Z,12.39
2019-05-05T08:47:37.603Z,12.39
2019-05-05T08:48:37.592Z,10.19
2019-05-05T08:49:37.579Z,17.10
2019-05-05T08:50:37.616Z,14.19
2019-05-05T08:51:37.560Z,14.10
2019-05-05T08:52:37.545Z,10.89
2019-05-05T08:53:44.729Z,9.50
2019-05-05T08:55:04.515Z,10.39
2019-05-05T08:56:04.081Z,9.80
2019-05-05T08:57:04.223Z,11.39
2019-05-05T08:58:04.360Z,12.10
2019-05-05T08:59:03.627Z,15.10
2019-05-05T09:00:02.287Z,8.69
2019-05-05T09:01:04.400Z,7.90
2019-05-05T09:02:04.349Z,13.60
2019-05-05T09:03:03.749Z,9.60
2019-05-05T09:04:04.096Z,15.00
2019-05-05T09:05:04.140Z,10.60
2019-05-05T09:06:04.541Z,9.50
2019-05-05T09:07:04.828Z,9.60
2019-05-05T09:08:04.427Z,13.89
2019-05-05T09:09:03.862Z,16.00
2019-05-05T09:10:03.900Z,11.00
2019-05-05T09:11:04.514Z,11.00
2019-05-05T09:12:04.403Z,10.30
2019-05-05T09:13:03.770Z,12.19
2019-05-05T09:14:04.088Z,10.89
2019-05-05T09:15:04.260Z,8.10
2019-05-05T09:16:03.837Z,14.30
2019-05-05T09:17:04.267Z,11.80
2019-05-05T09:18:02.092Z,10.19
2019-05-05T09:19:04.090Z,13.60
2019-05-05T09:20:04.362Z,11.60
2019-05-05T09:21:04.209Z,14.80
2019-05-05T09:22:02.052Z,11.69
2019-05-05T09:23:03.638Z,18.79
2019-05-05T09:24:04.781Z,9.60
2019-05-05T09:25:04.144Z,12.60
2019-05-05T09:26:04.328Z,9.30
2019-05-05T09:27:03.629Z,7.50
2019-05-05T09:28:03.934Z,10.69
2019-05-05T09:29:01.978Z,12.60
2019-05-05T09:30:03.926Z,12.50
2019-05-05T09:31:04.058Z,15.80
2019-05-05T09:32:03.902Z,10.50
2019-05-05T09:33:03.577Z,7.50
2019-05-05T09:34:04.040Z,10.30
2019-05-05T09:35:01.917Z,11.10
2019-05-05T09:36:01.901Z,13.50
2019-05-05T09:37:03.650Z,14.50
2019-05-05T09:38:03.875Z,12.00
2019-05-05T09:39:01.869Z,10.69
2019-05-05T09:40:01.863Z,9.69
2019-05-05T09:41:03.805Z,9.19
2019-05-05T09:42:03.937Z,13.39
2019-05-05T09:43:03.801Z,7.40
2019-05-05T09:44:04.180Z,7.80
2019-05-05T09:45:01.807Z,9.50
2019-05-05T09:46:03.764Z,11.89
2019-05-05T09:47:04.061Z,9.10
2019-05-05T09:48:01.771Z,10.30
2019-05-05T09:49:01.759Z,11.39
2019-05-05T09:50:03.801Z,10.00
2019-05-05T09:51:01.737Z,7.90
2019-05-05T09:52:01.726Z,11.00
2019-05-05T09:53:01.720Z,14.10
2019-05-05T09:54:11.858Z,10.80
2019-05-05T09:55:26.616Z,8.50
2019-05-05T09:56:26.507Z,12.30
2019-05-05T09:57:26.490Z,12.69
2019-05-05T09:58:26.480Z,17.20
2019-05-05T09:59:26.480Z,11.50
2019-05-05T10:00:26.460Z,9.89
2019-05-05T10:01:26.600Z,8.69
2019-05-05T10:02:26.468Z,9.30
2019-05-05T10:03:26.426Z,8.60
2019-05-05T10:04:26.418Z,21.79
2019-05-05T10:05:26.406Z,8.89
2019-05-05T10:06:26.395Z,11.10
2019-05-05T10:07:26.436Z,12.69
2019-05-05T10:08:26.378Z,9.30
2019-05-05T10:09:26.369Z,13.00
2019-05-05T10:10:26.351Z,13.00
2019-05-05T10:11:26.344Z,12.89
2019-05-05T10:12:26.332Z,11.19
2019-05-05T10:13:26.371Z,10.00
2019-05-05T10:14:26.313Z,10.60
2019-05-05T10:15:26.305Z,10.80
2019-05-05T10:16:26.289Z,9.80
2019-05-05T10:17:26.287Z,13.19
2019-05-05T10:18:26.270Z,10.89
2019-05-05T10:19:26.415Z,11.60
2019-05-05T10:20:26.255Z,10.00
2019-05-05T10:21:26.245Z,11.89
2019-05-05T10:22:26.226Z,9.69
2019-05-05T10:23:26.227Z,21.60
2019-05-05T10:24:30.649Z,11.80
2019-05-05T10:25:26.297Z,9.69
2019-05-05T10:26:26.184Z,9.60
2019-05-05T10:27:26.175Z,8.80
2019-05-05T10:28:26.164Z,10.89
2019-05-05T10:29:26.161Z,12.10
2019-05-05T10:30:26.141Z,7.59
2019-05-05T10:31:26.181Z,9.30
2019-05-05T10:32:26.126Z,9.60
2019-05-05T10:33:26.114Z,15.19
2019-05-05T10:34:26.106Z,8.69
2019-05-05T10:35:26.092Z,10.30
2019-05-05T10:36:26.088Z,12.69
2019-05-05T10:37:26.471Z,9.30
2019-05-05T10:38:26.057Z,11.50
2019-05-05T10:39:26.044Z,11.30
2019-05-05T10:40:26.034Z,13.80
2019-05-05T10:41:26.027Z,12.69
2019-05-05T10:42:26.014Z,9.60
2019-05-05T10:43:26.057Z,11.89
2019-05-05T10:44:25.995Z,16.60
2019-05-05T10:45:25.983Z,7.90
2019-05-05T10:46:25.976Z,9.39
2019-05-05T10:47:25.965Z,8.30
2019-05-05T10:48:25.949Z,11.69
2019-05-05T10:49:26.046Z,10.60
2019-05-05T10:50:25.926Z,11.19
2019-05-05T10:51:25.921Z,13.19
2019-05-05T10:52:25.906Z,9.39
2019-05-05T10:53:25.899Z,13.19
2019-05-05T10:54:40.154Z,9.39
2019-05-05T10:55:50.838Z,9.00
2019-05-05T10:56:50.831Z,8.89
2019-05-05T10:57:50.818Z,13.39
2019-05-05T10:58:50.808Z,9.80
2019-05-05T10:59:50.798Z,9.39
2019-05-05T11:00:50.835Z,9.69
2019-05-05T11:01:50.774Z,9.89
2019-05-05T11:02:50.763Z,9.19
2019-05-05T11:03:50.752Z,10.80
2019-05-05T11:04:50.744Z,11.00
2019-05-05T11:05:50.733Z,11.89
2019-05-05T11:06:50.774Z,8.80
2019-05-05T11:07:50.712Z,18.79
2019-05-05T11:08:50.703Z,10.39
2019-05-05T11:09:50.691Z,10.39
2019-05-05T11:10:50.679Z,12.10
2019-05-05T11:11:50.676Z,12.19
2019-05-05T11:12:50.809Z,8.80
2019-05-05T11:13:50.648Z,11.50
2019-05-05T11:14:50.640Z,14.19
2019-05-05T11:15:50.635Z,16.50
2019-05-05T11:16:50.621Z,12.10
2019-05-05T11:17:50.605Z,14.00
2019-05-05T11:18:50.692Z,11.69
2019-05-05T11:19:50.583Z,13.60
2019-05-05T11:20:50.578Z,9.89
2019-05-05T11:21:50.563Z,12.10
2019-05-05T11:22:50.551Z,9.69
2019-05-05T11:23:50.547Z,9.80
2019-05-05T11:24:58.241Z,9.00
2019-05-05T11:25:51.622Z,10.69
2019-05-05T11:26:50.510Z,16.00
2019-05-05T11:27:50.496Z,13.19
2019-05-05T11:28:50.487Z,12.30
2019-05-05T11:29:50.482Z,11.19
2019-05-05T11:30:50.516Z,11.39
2019-05-05T11:31:50.457Z,10.19
2019-05-05T11:32:50.442Z,9.89
2019-05-05T11:33:50.431Z,12.00
2019-05-05T11:34:50.423Z,13.89
2019-05-05T11:35:50.417Z,8.80
2019-05-05T11:36:50.499Z,11.00
2019-05-05T11:37:50.388Z,10.60
2019-05-05T11:38:50.384Z,8.00
2019-05-05T11:39:50.369Z,9.60
2019-05-05T11:40:50.363Z,12.50
2019-05-05T11:41:50.349Z,17.29
2019-05-05T11:43:50.578Z,11.00
2019-05-05T11:44:50.317Z,8.69
2019-05-05T11:45:50.306Z,9.69
2019-05-05T11:46:50.295Z,8.50
2019-05-05T11:47:50.286Z,14.30
2019-05-05T11:48:50.276Z,9.50
2019-05-05T11:49:50.361Z,8.50
2019-05-05T11:50:50.260Z,14.30
2019-05-05T11:51:50.240Z,9.50
2019-05-05T11:52:50.232Z,9.89
2019-05-05T11:53:50.220Z,9.00
2019-05-05T11:54:50.211Z,8.50
2019-05-05T11:55:50.246Z,14.39
2019-05-05T11:56:50.189Z,10.10
2019-05-05T11:57:50.176Z,9.50
2019-05-05T11:58:50.164Z,9.10
2019-05-05T11:59:50.156Z,10.80
2019-05-05T12:00:50.144Z,10.19
2019-05-05T12:01:50.287Z,11.69
2019-05-05T12:02:50.124Z,10.60
2019-05-05T12:03:50.112Z,10.80
2019-05-05T12:04:50.102Z,8.50
2019-05-05T12:05:50.090Z,10.30
2019-05-05T12:06:50.082Z,8.80
2019-05-05T12:07:50.118Z,11.69
2019-05-05T12:08:50.059Z,12.60
2019-05-05T12:09:50.052Z,14.80
2019-05-05T12:10:50.035Z,9.50
2019-05-05T12:11:50.026Z,10.60
2019-05-05T12:12:50.116Z,13.10
2019-05-05T12:13:50.004Z,10.00
2019-05-05T12:14:49.997Z,13.60
2019-05-05T12:15:49.983Z,14.00
2019-05-05T12:16:49.973Z,11.80
2019-05-05T12:17:50.111Z,7.80
2019-05-05T12:18:49.951Z,10.39
2019-05-05T12:19:49.942Z,12.19
2019-05-05T12:20:49.929Z,11.30
2019-05-05T12:21:49.922Z,11.19
2019-05-05T12:22:49.911Z,9.30
2019-05-05T12:23:50.001Z,14.00
2019-05-05T12:24:49.891Z,11.89
2019-05-05T12:25:49.879Z,12.10
2019-05-05T12:26:49.873Z,12.60
2019-05-05T12:27:49.854Z,11.89
2019-05-05T12:28:49.845Z,11.80
2019-05-05T12:29:49.935Z,21.89
2019-05-05T12:30:49.826Z,12.30
2019-05-05T12:31:49.814Z,9.80
2019-05-05T12:32:49.801Z,14.30
2019-05-05T12:33:49.791Z,9.80
2019-05-05T12:34:49.788Z,9.10
2019-05-05T12:35:49.919Z,14.00
2019-05-05T12:36:49.760Z,13.39
2019-05-05T12:37:49.748Z,12.89
2019-05-05T12:38:49.735Z,11.30
2019-05-05T12:39:49.725Z,15.19
2019-05-05T12:40:49.715Z,14.19
2019-05-05T12:41:49.806Z,15.00
2019-05-05T12:42:49.694Z,11.80
2019-05-05T12:43:49.690Z,12.60
2019-05-05T12:44:49.670Z,13.30
2019-05-05T12:45:49.663Z,12.10
2019-05-05T12:46:49.656Z,13.60
2019-05-05T12:47:49.688Z,10.80
2019-05-05T12:48:49.631Z,12.00
2019-05-05T12:49:49.623Z,10.30
2019-05-05T12:50:49.607Z,12.69
2019-05-05T12:51:49.601Z,8.69
2019-05-05T12:52:49.587Z,12.60
2019-05-05T12:53:49.724Z,10.19
2019-05-05T12:54:49.567Z,8.89
2019-05-05T12:55:49.559Z,15.30
2019-05-05T12:56:49.544Z,10.80
2019-05-05T12:57:49.533Z,10.80
2019-05-05T12:58:49.522Z,30.10
2019-05-05T12:59:49.565Z,17.29
2019-05-05T13:00:49.501Z,29.29
2019-05-05T13:01:49.486Z,16.00
2019-05-05T13:02:49.481Z,11.50
2019-05-05T13:03:49.468Z,12.19
2019-05-05T13:04:49.457Z,11.50
2019-05-05T13:05:49.547Z,13.60
2019-05-05T13:06:49.440Z,11.60
2019-05-05T13:07:49.425Z,11.60